createdAt,value
2022-08-03T00:00:56.652Z,15.11
2022-08-03T00:06:03.736Z,15.14
2022-08-03T00:11:08.380Z,15.15
2022-08-03T00:16:11.513Z,15.13
2022-08-03T00:21:14.628Z,15.16
2022-08-03T00:26:18.951Z,15.20
2022-08-03T00:31:29.692Z,15.20
2022-08-03T00:36:45.042Z,15.19
2022-08-03T00:41:48.998Z,15.17
2022-08-03T00:46:52.084Z,15.13
2022-08-03T00:51:55.665Z,15.10
2022-08-03T00:57:00.014Z,15.06
2022-08-03T01:02:03.722Z,15.02
2022-08-03T01:07:44.201Z,14.95
2022-08-03T01:13:59.882Z,14.89
2022-08-03T01:19:10.947Z,14.84
2022-08-03T01:24:48.230Z,14.78
2022-08-03T01:30:05.531Z,14.73
2022-08-03T01:35:17.978Z,14.68
2022-08-03T01:40:27.095Z,14.62
2022-08-03T01:45:34.035Z,14.55
2022-08-03T01:50:38.510Z,14.51
2022-08-03T01:55:46.712Z,14.49
2022-08-03T02:00:52.414Z,14.39
2022-08-03T02:06:58.408Z,14.36
2022-08-03T02:11:22.126Z,14.35
2022-08-03T02:16:27.812Z,14.36
2022-08-03T02:21:56.766Z,14.36
2022-08-03T02:27:02.169Z,14.33
2022-08-03T02:32:06.703Z,14.40
2022-08-03T02:37:12.771Z,14.46
2022-08-03T02:42:21.020Z,14.49
2022-08-03T02:47:29.126Z,14.55
2022-08-03T02:52:55.273Z,14.61
2022-08-03T02:58:01.411Z,14.61
2022-08-03T03:03:06.613Z,14.64
2022-08-03T03:08:18.068Z,14.69
2022-08-03T03:13:24.947Z,14.75
2022-08-03T03:18:31.833Z,14.84
2022-08-03T03:23:39.026Z,14.91
2022-08-03T03:28:42.923Z,14.98
2022-08-03T03:33:46.629Z,15.08
2022-08-03T03:38:49.845Z,15.22
2022-08-03T03:43:57.099Z,15.33
2022-08-03T03:49:00.561Z,15.40
2022-08-03T03:54:07.269Z,15.51
2022-08-03T03:59:10.535Z,15.61
2022-08-03T04:04:32.067Z,15.74
2022-08-03T04:10:07.852Z,15.85
2022-08-03T04:15:22.874Z,15.97
2022-08-03T04:20:32.158Z,16.08
2022-08-03T04:25:40.255Z,16.20
2022-08-03T04:30:49.126Z,16.27
2022-08-03T04:36:02.001Z,16.34
2022-08-03T04:41:08.659Z,16.38
2022-08-03T04:46:12.836Z,16.43
2022-08-03T04:51:16.989Z,16.54
2022-08-03T04:56:20.336Z,16.68
2022-08-03T05:01:23.633Z,16.86
2022-08-03T05:06:27.062Z,17.13
2022-08-03T05:11:30.348Z,17.37
2022-08-03T05:16:33.483Z,17.73
2022-08-03T05:21:41.673Z,18.17
2022-08-03T05:26:55.511Z,18.94
2022-08-03T05:31:58.697Z,19.47
2022-08-03T05:37:01.787Z,19.97
2022-08-03T05:42:05.045Z,21.03
2022-08-03T05:47:08.479Z,21.92
2022-08-03T05:52:12.647Z,22.40
2022-08-03T05:57:17.932Z,23.24
2022-08-03T06:02:21.045Z,23.89
2022-08-03T06:07:24.304Z,24.23
2022-08-03T06:12:27.509Z,24.15
2022-08-03T06:17:37.231Z,24.10
2022-08-03T06:22:50.505Z,24.17
2022-08-03T06:27:54.929Z,24.54
2022-08-03T06:32:58.010Z,24.57
2022-08-03T06:38:01.130Z,24.42
2022-08-03T06:43:04.229Z,24.63
2022-08-03T06:48:11.478Z,25.25
2022-08-03T06:53:21.379Z,26.31
2022-08-03T06:58:24.801Z,27.12
2022-08-03T07:03:28.038Z,27.93
2022-08-03T07:08:33.338Z,28.48
2022-08-03T07:13:37.576Z,28.50
2022-08-03T07:18:41.250Z,28.19
2022-08-03T07:23:44.376Z,28.27
2022-08-03T07:28:47.449Z,28.61
2022-08-03T07:33:50.960Z,28.82
2022-08-03T07:38:54.621Z,29.04
2022-08-03T07:43:57.998Z,29.46
2022-08-03T07:49:01.989Z,30.06
2022-08-03T07:54:05.719Z,30.45
2022-08-03T07:59:09.082Z,30.95
2022-08-03T08:04:12.510Z,31.29
2022-08-03T08:09:16.017Z,31.13
2022-08-03T08:14:19.228Z,30.94
2022-08-03T08:19:22.711Z,30.52
2022-08-03T08:24:31.118Z,29.63
2022-08-03T08:29:35.386Z,29.25
2022-08-03T08:34:51.231Z,28.90
2022-08-03T08:40:00.235Z,28.52
2022-08-03T08:45:08.558Z,28.21
2022-08-03T08:50:27.085Z,28.17
2022-08-03T08:55:58.699Z,27.97
2022-08-03T09:00:57.705Z,28.07
2022-08-03T09:06:02.983Z,28.51
2022-08-03T09:11:08.262Z,28.91
2022-08-03T09:16:23.916Z,29.16
2022-08-03T09:21:33.691Z,28.99
2022-08-03T09:26:38.656Z,29.17
2022-08-03T09:31:46.726Z,29.35
2022-08-03T09:36:52.627Z,29.68
2022-08-03T09:42:15.315Z,30.08
2022-08-03T09:47:34.676Z,30.35
2022-08-03T09:52:50.236Z,30.32
2022-08-03T09:58:10.789Z,30.21
2022-08-03T10:03:14.156Z,30.39
2022-08-03T10:08:20.251Z,30.33
2022-08-03T10:13:23.986Z,30.20
2022-08-03T10:18:27.386Z,30.42
2022-08-03T10:23:35.994Z,30.66
2022-08-03T10:28:46.221Z,30.23
2022-08-03T10:33:53.461Z,30.08
2022-08-03T10:38:57.726Z,29.69
2022-08-03T10:44:10.777Z,30.37
2022-08-03T10:49:34.016Z,30.67
2022-08-03T10:55:09.190Z,30.89
2022-08-03T11:00:24.140Z,30.89
2022-08-03T11:05:30.445Z,30.25
2022-08-03T11:10:33.713Z,30.00
2022-08-03T11:15:37.929Z,30.13
2022-08-03T11:20:57.160Z,30.02
2022-08-03T11:26:22.888Z,29.85
2022-08-03T11:31:48.899Z,30.11
2022-08-03T11:37:24.621Z,30.66
2022-08-03T11:42:29.352Z,31.23
2022-08-03T11:47:50.714Z,31.44
2022-08-03T11:52:55.068Z,31.66
2022-08-03T11:58:58.163Z,31.96
2022-08-03T12:03:24.323Z,32.33
2022-08-03T12:08:29.236Z,31.86
2022-08-03T12:14:45.644Z,30.87
2022-08-03T12:19:10.888Z,30.64
2022-08-03T12:24:14.082Z,30.91
2022-08-03T12:29:26.065Z,31.28
2022-08-03T12:34:51.245Z,31.54
2022-08-03T12:40:09.516Z,31.52
2022-08-03T12:45:27.617Z,31.97
2022-08-03T12:50:37.551Z,32.18
2022-08-03T12:56:04.443Z,32.45
2022-08-03T13:01:10.286Z,32.59
2022-08-03T13:06:23.913Z,32.96
2022-08-03T13:11:57.225Z,33.27
2022-08-03T13:16:55.119Z,33.36
2022-08-03T13:22:04.129Z,33.43
2022-08-03T13:28:01.000Z,33.29
2022-08-03T13:32:37.738Z,33.32
2022-08-03T13:37:40.848Z,33.49
2022-08-03T13:42:44.104Z,32.75
2022-08-03T13:47:47.270Z,32.24
2022-08-03T13:52:51.496Z,32.11
2022-08-03T13:58:04.846Z,32.19
2022-08-03T14:03:14.287Z,31.71
2022-08-03T14:08:20.366Z,31.83
2022-08-03T14:13:25.649Z,31.47
2022-08-03T14:18:33.606Z,31.05
2022-08-03T14:23:38.466Z,31.36
2022-08-03T14:28:41.785Z,31.75
2022-08-03T14:33:45.018Z,32.08
2022-08-03T14:38:48.265Z,32.44
2022-08-03T14:44:02.212Z,32.49
2022-08-03T14:50:37.373Z,32.21
2022-08-03T14:54:31.142Z,31.74
2022-08-03T14:59:55.855Z,31.19
2022-08-03T15:04:57.451Z,31.04
2022-08-03T15:10:40.334Z,30.70
2022-08-03T15:15:51.925Z,30.96
2022-08-03T15:20:55.516Z,31.12
2022-08-03T15:26:03.894Z,30.87
2022-08-03T15:31:24.769Z,30.94
2022-08-03T15:36:27.961Z,31.21
2022-08-03T15:41:31.443Z,31.41
2022-08-03T15:46:34.839Z,31.37
2022-08-03T15:51:38.526Z,31.39
2022-08-03T15:56:45.422Z,31.34
2022-08-03T16:01:49.414Z,31.28
2022-08-03T16:06:52.874Z,31.28
2022-08-03T16:11:56.123Z,31.45
2022-08-03T16:16:59.275Z,31.60
2022-08-03T16:22:02.348Z,31.10
2022-08-03T16:27:06.642Z,30.79
2022-08-03T16:32:20.685Z,30.58
2022-08-03T16:37:38.039Z,30.42
2022-08-03T16:42:42.270Z,30.27
2022-08-03T16:47:45.318Z,30.56
2022-08-03T16:52:48.727Z,30.80
2022-08-03T16:57:59.364Z,31.30
2022-08-03T17:03:12.816Z,31.69
2022-08-03T17:08:26.537Z,31.83
2022-08-03T17:13:39.853Z,31.91
2022-08-03T17:18:57.687Z,32.26
2022-08-03T17:24:19.671Z,32.72
2022-08-03T17:29:26.160Z,33.13
2022-08-03T17:34:33.380Z,33.37
2022-08-03T17:45:03.511Z,32.89
2022-08-03T17:50:09.745Z,32.59
2022-08-03T17:55:56.535Z,31.87
2022-08-03T18:02:00.164Z,31.46
2022-08-03T18:06:55.981Z,30.78
2022-08-03T18:12:07.143Z,29.89
2022-08-03T18:17:19.882Z,28.77
2022-08-03T18:22:27.114Z,27.58
2022-08-03T18:27:42.387Z,26.40
2022-08-03T18:33:01.022Z,25.14
2022-08-03T18:38:16.787Z,24.43
2022-08-03T18:43:21.702Z,23.91
2022-08-03T18:49:33.465Z,23.32
2022-08-03T18:55:01.027Z,22.72
2022-08-03T19:00:23.926Z,22.25
2022-08-03T19:05:57.718Z,21.88
2022-08-03T19:11:03.621Z,21.73
2022-08-03T19:16:18.966Z,21.55
2022-08-03T19:21:22.951Z,21.42
2022-08-03T19:26:30.144Z,21.29
2022-08-03T19:31:38.876Z,21.15
2022-08-03T19:36:43.912Z,21.00
2022-08-03T19:41:52.003Z,20.89
2022-08-03T19:47:42.520Z,20.76
2022-08-03T19:52:48.355Z,20.56
2022-08-03T19:57:57.208Z,20.41
2022-08-03T20:03:01.258Z,20.24
2022-08-03T20:08:06.939Z,20.07
2022-08-03T20:13:19.264Z,19.90
2022-08-03T20:18:22.915Z,19.72
2022-08-03T20:23:37.225Z,19.54
2022-08-03T20:28:52.297Z,19.42
2022-08-03T20:33:55.433Z,19.35
2022-08-03T20:38:59.164Z,19.28
2022-08-03T20:44:04.715Z,19.21
2022-08-03T20:49:08.326Z,19.10
2022-08-03T20:54:29.946Z,18.99
2022-08-03T20:59:50.407Z,18.80
2022-08-03T21:04:54.873Z,18.66
2022-08-03T21:10:04.185Z,18.46
2022-08-03T21:16:02.560Z,18.34
2022-08-03T21:20:44.671Z,18.25
2022-08-03T21:25:50.891Z,18.17
2022-08-03T21:30:55.705Z,18.08
2022-08-03T21:35:59.136Z,18.02
2022-08-03T21:41:04.042Z,17.93
2022-08-03T21:46:08.503Z,17.74
2022-08-03T21:51:16.147Z,17.61
2022-08-03T21:56:22.468Z,17.53
2022-08-03T22:01:28.451Z,17.47
2022-08-03T22:06:42.509Z,17.48
2022-08-03T22:11:48.080Z,17.40
2022-08-03T22:16:51.453Z,17.37
2022-08-03T22:21:54.817Z,17.33
2022-08-03T22:27:18.585Z,17.30
2022-08-03T22:32:21.657Z,17.20
2022-08-03T22:37:29.047Z,17.08
2022-08-03T22:42:35.467Z,16.99
2022-08-03T22:47:41.317Z,16.97
2022-08-03T22:52:45.683Z,16.96
2022-08-03T22:57:50.980Z,16.93
2022-08-03T23:03:03.385Z,16.87
2022-08-03T23:08:09.948Z,16.90
2022-08-03T23:13:16.193Z,16.94
2022-08-03T23:18:22.506Z,17.02
2022-08-03T23:23:26.687Z,17.13
2022-08-03T23:28:35.304Z,17.20
2022-08-03T23:33:40.965Z,17.24
2022-08-03T23:38:45.161Z,17.26
2022-08-03T23:43:51.873Z,17.18
2022-08-03T23:49:00.456Z,17.01
2022-08-03T23:54:28.297Z,16.88
